sensor_id;sensor_type;location;lat;lon;timestamp;temperature;humidity
4433;DHT22;2229;48.708;9.706;2022-09-09T00:01:11;14.30;99.90
4433;DHT22;2229;48.708;9.706;2022-09-09T00:03:53;14.20;99.90
4433;DHT22;2229;48.708;9.706;2022-09-09T00:06:24;14.20;99.90
4433;DHT22;2229;48.708;9.706;2022-09-09T00:09:01;14.20;99.90
4433;DHT22;2229;48.708;9.706;2022-09-09T00:11:36;14.30;99.90
4433;DHT22;2229;48.708;9.706;2022-09-09T00:14:11;14.30;99.90
4433;DHT22;2229;48.708;9.706;2022-09-09T00:16:42;14.30;99.90
4433;DHT22;2229;48.708;9.706;2022-09-09T00:19:17;14.30;99.90
4433;DHT22;2229;48.708;9.706;2022-09-09T00:21:51;14.30;99.90
4433;DHT22;2229;48.708;9.706;2022-09-09T00:24:26;14.30;99.90
4433;DHT22;2229;48.708;9.706;2022-09-09T00:27:00;14.30;99.90
4433;DHT22;2229;48.708;9.706;2022-09-09T00:29:35;14.30;99.90
4433;DHT22;2229;48.708;9.706;2022-09-09T00:32:11;14.30;99.90
4433;DHT22;2229;48.708;9.706;2022-09-09T00:34:42;14.30;99.90
4433;DHT22;2229;48.708;9.706;2022-09-09T00:37:11;14.20;99.90
4433;DHT22;2229;48.708;9.706;2022-09-09T00:39:41;14.20;99.90
4433;DHT22;2229;48.708;9.706;2022-09-09T00:42:14;14.20;99.90
4433;DHT22;2229;48.708;9.706;2022-09-09T00:44:53;14.20;99.90
4433;DHT22;2229;48.708;9.706;2022-09-09T00:47:44;14.20;99.90
4433;DHT22;2229;48.708;9.706;2022-09-09T00:50:31;14.20;99.90
4433;DHT22;2229;48.708;9.706;2022-09-09T00:53:19;14.20;99.90
4433;DHT22;2229;48.708;9.706;2022-09-09T00:55:54;14.10;99.90
4433;DHT22;2229;48.708;9.706;2022-09-09T00:58:23;14.10;99.90
4433;DHT22;2229;48.708;9.706;2022-09-09T01:00:57;14.10;99.90
4433;DHT22;2229;48.708;9.706;2022-09-09T01:03:32;14.10;99.90
4433;DHT22;2229;48.708;9.706;2022-09-09T01:06:14;14.10;99.90
4433;DHT22;2229;48.708;9.706;2022-09-09T01:09:16;14.10;99.90
4433;DHT22;2229;48.708;9.706;2022-09-09T01:11:57;14.10;99.90
4433;DHT22;2229;48.708;9.706;2022-09-09T01:14:39;14.10;99.90
4433;DHT22;2229;48.708;9.706;2022-09-09T01:17:14;14.10;99.90
4433;DHT22;2229;48.708;9.706;2022-09-09T01:20:01;14.10;99.90
4433;DHT22;2229;48.708;9.706;2022-09-09T01:22:39;14.10;99.90
4433;DHT22;2229;48.708;9.706;2022-09-09T01:25:56;14.10;99.90
4433;DHT22;2229;48.708;9.706;2022-09-09T01:28:28;14.10;99.90
4433;DHT22;2229;48.708;9.706;2022-09-09T01:31:02;14.10;99.90
4433;DHT22;2229;48.708;9.706;2022-09-09T01:33:36;14.10;99.90
4433;DHT22;2229;48.708;9.706;2022-09-09T01:36:06;14.10;99.90
4433;DHT22;2229;48.708;9.706;2022-09-09T01:38:42;14.10;99.90
4433;DHT22;2229;48.708;9.706;2022-09-09T01:41:11;14.10;99.90
4433;DHT22;2229;48.708;9.706;2022-09-09T01:44:02;14.10;99.90
4433;DHT22;2229;48.708;9.706;2022-09-09T01:46:31;14.10;99.90
4433;DHT22;2229;48.708;9.706;2022-09-09T01:49:02;14.10;99.90
4433;DHT22;2229;48.708;9.706;2022-09-09T01:51:30;14.00;99.90
4433;DHT22;2229;48.708;9.706;2022-09-09T01:54:01;14.10;99.90
4433;DHT22;2229;48.708;9.706;2022-09-09T01:56:37;14.00;99.90
4433;DHT22;2229;48.708;9.706;2022-09-09T01:59:22;14.00;99.90
4433;DHT22;2229;48.708;9.706;2022-09-09T02:02:06;14.00;99.90
4433;DHT22;2229;48.708;9.706;2022-09-09T02:04:38;14.00;99.90
4433;DHT22;2229;48.708;9.706;2022-09-09T02:07:31;14.00;99.90
4433;DHT22;2229;48.708;9.706;2022-09-09T02:10:10;14.00;99.90
4433;DHT22;2229;48.708;9.706;2022-09-09T02:12:45;13.90;99.90
4433;DHT22;2229;48.708;9.706;2022-09-09T02:15:20;14.00;99.90
4433;DHT22;2229;48.708;9.706;2022-09-09T02:17:50;14.00;99.90
4433;DHT22;2229;48.708;9.706;2022-09-09T02:20:20;14.00;99.90
4433;DHT22;2229;48.708;9.706;2022-09-09T02:23:06;14.10;99.90
4433;DHT22;2229;48.708;9.706;2022-09-09T02:25:36;14.10;99.90
4433;DHT22;2229;48.708;9.706;2022-09-09T02:28:18;14.10;99.90
4433;DHT22;2229;48.708;9.706;2022-09-09T02:30:49;14.10;99.90
4433;DHT22;2229;48.708;9.706;2022-09-09T02:33:23;14.10;99.90
4433;DHT22;2229;48.708;9.706;2022-09-09T02:35:51;14.10;99.90
4433;DHT22;2229;48.708;9.706;2022-09-09T02:38:26;14.10;99.90
4433;DHT22;2229;48.708;9.706;2022-09-09T02:41:01;14.20;99.90
4433;DHT22;2229;48.708;9.706;2022-09-09T02:43:33;14.20;99.90
4433;DHT22;2229;48.708;9.706;2022-09-09T02:46:08;14.20;99.90
4433;DHT22;2229;48.708;9.706;2022-09-09T02:48:42;14.30;99.90
4433;DHT22;2229;48.708;9.706;2022-09-09T02:51:16;14.30;99.90
4433;DHT22;2229;48.708;9.706;2022-09-09T02:53:49;14.30;99.90
4433;DHT22;2229;48.708;9.706;2022-09-09T02:56:23;14.20;99.90
4433;DHT22;2229;48.708;9.706;2022-09-09T02:58:56;14.20;99.90
4433;DHT22;2229;48.708;9.706;2022-09-09T03:01:25;14.10;99.90
4433;DHT22;2229;48.708;9.706;2022-09-09T03:03:52;14.10;99.90
4433;DHT22;2229;48.708;9.706;2022-09-09T03:06:20;14.10;99.90
4433;DHT22;2229;48.708;9.706;2022-09-09T03:08:55;14.20;99.90
4433;DHT22;2229;48.708;9.706;2022-09-09T03:11:26;14.20;99.90
4433;DHT22;2229;48.708;9.706;2022-09-09T03:13:55;14.30;99.90
4433;DHT22;2229;48.708;9.706;2022-09-09T03:16:23;14.30;99.90
4433;DHT22;2229;48.708;9.706;2022-09-09T03:18:53;14.30;99.90
4433;DHT22;2229;48.708;9.706;2022-09-09T03:21:20;14.40;99.90
4433;DHT22;2229;48.708;9.706;2022-09-09T03:23:48;14.30;99.90
4433;DHT22;2229;48.708;9.706;2022-09-09T03:26:15;14.30;99.90
4433;DHT22;2229;48.708;9.706;2022-09-09T03:28:45;14.30;99.90
4433;DHT22;2229;48.708;9.706;2022-09-09T03:31:18;14.30;99.90
4433;DHT22;2229;48.708;9.706;2022-09-09T03:33:45;14.20;99.90
4433;DHT22;2229;48.708;9.706;2022-09-09T03:36:15;14.30;99.90
4433;DHT22;2229;48.708;9.706;2022-09-09T03:38:42;14.30;99.90
4433;DHT22;2229;48.708;9.706;2022-09-09T03:41:11;14.20;99.90
4433;DHT22;2229;48.708;9.706;2022-09-09T03:43:39;14.20;99.90
4433;DHT22;2229;48.708;9.706;2022-09-09T03:46:07;14.20;99.90
4433;DHT22;2229;48.708;9.706;2022-09-09T03:48:36;14.20;99.90
4433;DHT22;2229;48.708;9.706;2022-09-09T03:51:04;14.20;99.90
4433;DHT22;2229;48.708;9.706;2022-09-09T03:53:33;14.20;99.90
4433;DHT22;2229;48.708;9.706;2022-09-09T03:56:01;14.30;99.90
4433;DHT22;2229;48.708;9.706;2022-09-09T03:58:30;14.20;99.90
4433;DHT22;2229;48.708;9.706;2022-09-09T04:01:03;14.20;99.90
4433;DHT22;2229;48.708;9.706;2022-09-09T04:03:32;14.20;99.90
4433;DHT22;2229;48.708;9.706;2022-09-09T04:06:02;14.20;99.90
4433;DHT22;2229;48.708;9.706;2022-09-09T04:08:31;14.20;99.90
4433;DHT22;2229;48.708;9.706;2022-09-09T04:10:59;14.20;99.90
4433;DHT22;2229;48.708;9.706;2022-09-09T04:13:28;14.20;99.90
4433;DHT22;2229;48.708;9.706;2022-09-09T04:15:58;14.20;99.90
4433;DHT22;2229;48.708;9.706;2022-09-09T04:18:26;14.20;99.90
4433;DHT22;2229;48.708;9.706;2022-09-09T04:20:54;14.20;99.90
4433;DHT22;2229;48.708;9.706;2022-09-09T04:23:27;14.20;99.90
4433;DHT22;2229;48.708;9.706;2022-09-09T04:25:58;14.20;99.90
4433;DHT22;2229;48.708;9.706;2022-09-09T04:28:28;14.30;99.90
4433;DHT22;2229;48.708;9.706;2022-09-09T04:30:56;14.30;99.90
4433;DHT22;2229;48.708;9.706;2022-09-09T04:33:24;14.30;99.90
4433;DHT22;2229;48.708;9.706;2022-09-09T04:35:53;14.30;99.90
4433;DHT22;2229;48.708;9.706;2022-09-09T04:38:23;14.20;99.90
4433;DHT22;2229;48.708;9.706;2022-09-09T04:40:52;14.20;99.90
4433;DHT22;2229;48.708;9.706;2022-09-09T04:43:20;14.20;99.90
4433;DHT22;2229;48.708;9.706;2022-09-09T04:45:50;14.20;99.90
4433;DHT22;2229;48.708;9.706;2022-09-09T04:48:20;14.20;99.90
4433;DHT22;2229;48.708;9.706;2022-09-09T04:50:55;14.20;99.90
4433;DHT22;2229;48.708;9.706;2022-09-09T04:53:23;14.20;99.90
4433;DHT22;2229;48.708;9.706;2022-09-09T04:56:00;14.20;99.90
4433;DHT22;2229;48.708;9.706;2022-09-09T04:58:29;14.20;99.90
4433;DHT22;2229;48.708;9.706;2022-09-09T05:01:03;14.20;99.90
4433;DHT22;2229;48.708;9.706;2022-09-09T05:03:31;14.20;99.90
4433;DHT22;2229;48.708;9.706;2022-09-09T05:06:03;14.20;99.90
4433;DHT22;2229;48.708;9.706;2022-09-09T05:08:31;14.20;99.90
4433;DHT22;2229;48.708;9.706;2022-09-09T05:11:00;14.20;99.90
4433;DHT22;2229;48.708;9.706;2022-09-09T05:13:27;14.20;99.90
4433;DHT22;2229;48.708;9.706;2022-09-09T05:15:55;14.20;99.90
4433;DHT22;2229;48.708;9.706;2022-09-09T05:18:22;14.20;99.90
4433;DHT22;2229;48.708;9.706;2022-09-09T05:20:52;14.20;99.90
4433;DHT22;2229;48.708;9.706;2022-09-09T05:23:20;14.20;99.90
4433;DHT22;2229;48.708;9.706;2022-09-09T05:25:55;14.20;99.90
4433;DHT22;2229;48.708;9.706;2022-09-09T05:28:25;14.20;99.90
4433;DHT22;2229;48.708;9.706;2022-09-09T05:31:01;14.30;99.90
4433;DHT22;2229;48.708;9.706;2022-09-09T05:33:31;14.40;99.90
4433;DHT22;2229;48.708;9.706;2022-09-09T05:36:00;14.30;99.90
4433;DHT22;2229;48.708;9.706;2022-09-09T05:38:29;14.30;99.90
4433;DHT22;2229;48.708;9.706;2022-09-09T05:40:56;14.30;99.90
4433;DHT22;2229;48.708;9.706;2022-09-09T05:43:26;14.30;99.90
4433;DHT22;2229;48.708;9.706;2022-09-09T05:46:01;14.30;99.90
4433;DHT22;2229;48.708;9.706;2022-09-09T05:48:30;14.30;99.90
4433;DHT22;2229;48.708;9.706;2022-09-09T05:50:58;14.40;99.90
4433;DHT22;2229;48.708;9.706;2022-09-09T05:53:26;14.40;99.90
4433;DHT22;2229;48.708;9.706;2022-09-09T05:56:00;14.40;99.90
4433;DHT22;2229;48.708;9.706;2022-09-09T05:58:31;14.50;99.90
4433;DHT22;2229;48.708;9.706;2022-09-09T06:01:03;14.50;99.90
4433;DHT22;2229;48.708;9.706;2022-09-09T06:03:32;14.50;99.90
4433;DHT22;2229;48.708;9.706;2022-09-09T06:06:00;14.60;99.90
4433;DHT22;2229;48.708;9.706;2022-09-09T06:08:28;14.70;99.90
4433;DHT22;2229;48.708;9.706;2022-09-09T06:11:01;14.80;99.90
4433;DHT22;2229;48.708;9.706;2022-09-09T06:13:54;14.90;99.90
4433;DHT22;2229;48.708;9.706;2022-09-09T06:16:24;15.00;99.90
4433;DHT22;2229;48.708;9.706;2022-09-09T06:18:53;15.10;99.90
4433;DHT22;2229;48.708;9.706;2022-09-09T06:21:23;15.20;99.90
4433;DHT22;2229;48.708;9.706;2022-09-09T06:23:51;15.20;99.90
4433;DHT22;2229;48.708;9.706;2022-09-09T06:26:23;15.30;99.90
4433;DHT22;2229;48.708;9.706;2022-09-09T06:28:58;15.30;99.90
4433;DHT22;2229;48.708;9.706;2022-09-09T06:31:27;15.40;99.90
4433;DHT22;2229;48.708;9.706;2022-09-09T06:33:58;15.40;99.90
4433;DHT22;2229;48.708;9.706;2022-09-09T06:36:27;15.50;99.90
4433;DHT22;2229;48.708;9.706;2022-09-09T06:38:55;15.60;99.90
4433;DHT22;2229;48.708;9.706;2022-09-09T06:41:24;15.60;99.90
4433;DHT22;2229;48.708;9.706;2022-09-09T06:43:52;15.70;99.90
4433;DHT22;2229;48.708;9.706;2022-09-09T06:46:30;15.90;99.90
4433;DHT22;2229;48.708;9.706;2022-09-09T06:49:00;16.00;99.90
4433;DHT22;2229;48.708;9.706;2022-09-09T06:51:29;16.10;99.90
4433;DHT22;2229;48.708;9.706;2022-09-09T06:53:58;16.20;99.90
4433;DHT22;2229;48.708;9.706;2022-09-09T06:56:27;16.30;99.90
4433;DHT22;2229;48.708;9.706;2022-09-09T06:58:57;16.40;99.90
4433;DHT22;2229;48.708;9.706;2022-09-09T07:01:30;16.60;99.90
4433;DHT22;2229;48.708;9.706;2022-09-09T07:04:01;16.60;99.90
4433;DHT22;2229;48.708;9.706;2022-09-09T07:06:34;16.70;99.90
4433;DHT22;2229;48.708;9.706;2022-09-09T07:09:04;16.80;99.90
4433;DHT22;2229;48.708;9.706;2022-09-09T07:11:36;16.80;99.90
4433;DHT22;2229;48.708;9.706;2022-09-09T07:14:03;16.90;99.90
4433;DHT22;2229;48.708;9.706;2022-09-09T07:16:32;17.00;99.90
4433;DHT22;2229;48.708;9.706;2022-09-09T07:19:01;17.10;99.90
4433;DHT22;2229;48.708;9.706;2022-09-09T07:21:30;17.20;99.90
4433;DHT22;2229;48.708;9.706;2022-09-09T07:23:58;17.20;99.90
4433;DHT22;2229;48.708;9.706;2022-09-09T07:26:27;17.30;99.90
4433;DHT22;2229;48.708;9.706;2022-09-09T07:28:55;17.40;99.90
4433;DHT22;2229;48.708;9.706;2022-09-09T07:31:24;17.50;99.90
4433;DHT22;2229;48.708;9.706;2022-09-09T07:33:54;17.50;99.90
4433;DHT22;2229;48.708;9.706;2022-09-09T07:36:23;17.60;99.90
4433;DHT22;2229;48.708;9.706;2022-09-09T07:38:54;17.70;99.90
4433;DHT22;2229;48.708;9.706;2022-09-09T07:41:24;17.70;99.90
4433;DHT22;2229;48.708;9.706;2022-09-09T07:43:52;17.80;99.90
4433;DHT22;2229;48.708;9.706;2022-09-09T07:46:21;17.80;99.90
4433;DHT22;2229;48.708;9.706;2022-09-09T07:48:51;17.90;99.90
4433;DHT22;2229;48.708;9.706;2022-09-09T07:51:24;17.90;99.90
4433;DHT22;2229;48.708;9.706;2022-09-09T07:53:54;18.00;99.90
4433;DHT22;2229;48.708;9.706;2022-09-09T07:56:21;18.10;99.90
4433;DHT22;2229;48.708;9.706;2022-09-09T07:58:51;18.10;99.90
4433;DHT22;2229;48.708;9.706;2022-09-09T08:01:24;18.30;99.90
4433;DHT22;2229;48.708;9.706;2022-09-09T08:03:56;18.40;99.90
4433;DHT22;2229;48.708;9.706;2022-09-09T08:06:30;18.40;99.90
4433;DHT22;2229;48.708;9.706;2022-09-09T08:09:02;18.50;99.90
4433;DHT22;2229;48.708;9.706;2022-09-09T08:11:31;18.70;99.90
4433;DHT22;2229;48.708;9.706;2022-09-09T08:13:59;18.90;99.90
4433;DHT22;2229;48.708;9.706;2022-09-09T08:16:28;19.00;99.90
4433;DHT22;2229;48.708;9.706;2022-09-09T08:18:56;19.30;99.90
4433;DHT22;2229;48.708;9.706;2022-09-09T08:21:25;19.50;99.90
4433;DHT22;2229;48.708;9.706;2022-09-09T08:23:59;19.80;99.90
4433;DHT22;2229;48.708;9.706;2022-09-09T08:26:28;20.10;99.90
4433;DHT22;2229;48.708;9.706;2022-09-09T08:29:15;20.30;99.90
4433;DHT22;2229;48.708;9.706;2022-09-09T08:31:45;20.50;99.90
4433;DHT22;2229;48.708;9.706;2022-09-09T08:34:13;20.70;99.90
4433;DHT22;2229;48.708;9.706;2022-09-09T08:36:44;20.90;99.90
4433;DHT22;2229;48.708;9.706;2022-09-09T08:39:15;21.00;99.90
4433;DHT22;2229;48.708;9.706;2022-09-09T08:41:53;21.10;99.70
4433;DHT22;2229;48.708;9.706;2022-09-09T08:44:36;21.30;99.20
4433;DHT22;2229;48.708;9.706;2022-09-09T08:47:17;21.40;98.50
4433;DHT22;2229;48.708;9.706;2022-09-09T08:49:56;21.60;97.90
4433;DHT22;2229;48.708;9.706;2022-09-09T08:52:29;21.70;97.60
4433;DHT22;2229;48.708;9.706;2022-09-09T08:55:05;21.90;97.10
4433;DHT22;2229;48.708;9.706;2022-09-09T08:57:39;22.00;96.50
4433;DHT22;2229;48.708;9.706;2022-09-09T09:00:09;22.00;96.10
4433;DHT22;2229;48.708;9.706;2022-09-09T09:02:52;22.00;95.70
4433;DHT22;2229;48.708;9.706;2022-09-09T09:05:26;21.90;95.60
4433;DHT22;2229;48.708;9.706;2022-09-09T09:08:04;21.80;95.50
4433;DHT22;2229;48.708;9.706;2022-09-09T09:10:45;21.70;95.50
4433;DHT22;2229;48.708;9.706;2022-09-09T09:13:20;21.80;95.40
4433;DHT22;2229;48.708;9.706;2022-09-09T09:15:55;21.90;95.00
4433;DHT22;2229;48.708;9.706;2022-09-09T09:18:25;22.00;94.90
4433;DHT22;2229;48.708;9.706;2022-09-09T09:21:00;22.10;94.70
4433;DHT22;2229;48.708;9.706;2022-09-09T09:23:36;22.00;94.50
4433;DHT22;2229;48.708;9.706;2022-09-09T09:26:09;21.90;94.40
4433;DHT22;2229;48.708;9.706;2022-09-09T09:28:39;21.80;94.30
4433;DHT22;2229;48.708;9.706;2022-09-09T09:31:12;21.90;94.20
4433;DHT22;2229;48.708;9.706;2022-09-09T09:33:47;22.00;94.00
4433;DHT22;2229;48.708;9.706;2022-09-09T09:36:17;22.20;94.00
4433;DHT22;2229;48.708;9.706;2022-09-09T09:38:55;22.40;93.50
4433;DHT22;2229;48.708;9.706;2022-09-09T09:41:32;22.40;92.80
4433;DHT22;2229;48.708;9.706;2022-09-09T09:44:01;22.40;92.60
4433;DHT22;2229;48.708;9.706;2022-09-09T09:46:29;22.30;92.50
4433;DHT22;2229;48.708;9.706;2022-09-09T09:49:05;22.20;92.70
4433;DHT22;2229;48.708;9.706;2022-09-09T09:51:37;22.10;92.80
4433;DHT22;2229;48.708;9.706;2022-09-09T09:54:14;22.10;92.90
4433;DHT22;2229;48.708;9.706;2022-09-09T09:56:47;22.00;93.20
4433;DHT22;2229;48.708;9.706;2022-09-09T09:59:33;22.00;92.70
4433;DHT22;2229;48.708;9.706;2022-09-09T10:02:16;22.00;92.70
4433;DHT22;2229;48.708;9.706;2022-09-09T10:04:46;22.00;92.40
4433;DHT22;2229;48.708;9.706;2022-09-09T10:07:17;21.90;92.30
4433;DHT22;2229;48.708;9.706;2022-09-09T10:09:45;21.90;92.10
4433;DHT22;2229;48.708;9.706;2022-09-09T10:12:25;22.00;92.10
4433;DHT22;2229;48.708;9.706;2022-09-09T10:15:02;22.10;92.10
4433;DHT22;2229;48.708;9.706;2022-09-09T10:17:39;22.20;92.10
4433;DHT22;2229;48.708;9.706;2022-09-09T10:20:19;22.20;92.10
4433;DHT22;2229;48.708;9.706;2022-09-09T10:22:51;22.30;92.00
4433;DHT22;2229;48.708;9.706;2022-09-09T10:25:31;22.40;91.80
4433;DHT22;2229;48.708;9.706;2022-09-09T10:31:05;22.70;91.70
4433;DHT22;2229;48.708;9.706;2022-09-09T10:33:44;23.00;91.40
4433;DHT22;2229;48.708;9.706;2022-09-09T10:36:19;23.30;91.10
4433;DHT22;2229;48.708;9.706;2022-09-09T10:38:48;23.50;90.20
4433;DHT22;2229;48.708;9.706;2022-09-09T10:41:24;23.70;89.90
4433;DHT22;2229;48.708;9.706;2022-09-09T10:44:06;23.90;89.10
4433;DHT22;2229;48.708;9.706;2022-09-09T10:46:51;24.00;86.60
4433;DHT22;2229;48.708;9.706;2022-09-09T10:49:27;23.90;85.20
4433;DHT22;2229;48.708;9.706;2022-09-09T10:52:05;23.70;84.00
4433;DHT22;2229;48.708;9.706;2022-09-09T10:54:46;23.50;83.80
4433;DHT22;2229;48.708;9.706;2022-09-09T10:57:21;23.30;84.80
4433;DHT22;2229;48.708;9.706;2022-09-09T10:59:55;23.20;85.00
4433;DHT22;2229;48.708;9.706;2022-09-09T11:02:28;23.10;84.80
4433;DHT22;2229;48.708;9.706;2022-09-09T11:05:01;23.10;84.40
4433;DHT22;2229;48.708;9.706;2022-09-09T11:07:36;23.10;84.10
4433;DHT22;2229;48.708;9.706;2022-09-09T11:10:14;23.00;84.20
4433;DHT22;2229;48.708;9.706;2022-09-09T11:12:45;23.10;84.60
4433;DHT22;2229;48.708;9.706;2022-09-09T11:15:19;23.20;83.40
4433;DHT22;2229;48.708;9.706;2022-09-09T11:17:50;23.20;83.50
4433;DHT22;2229;48.708;9.706;2022-09-09T11:20:20;23.30;82.00
4433;DHT22;2229;48.708;9.706;2022-09-09T11:22:51;23.30;80.70
4433;DHT22;2229;48.708;9.706;2022-09-09T11:25:23;23.40;79.40
4433;DHT22;2229;48.708;9.706;2022-09-09T11:28:05;23.40;79.10
4433;DHT22;2229;48.708;9.706;2022-09-09T11:30:49;23.30;78.30
4433;DHT22;2229;48.708;9.706;2022-09-09T11:36:31;23.20;78.50
4433;DHT22;2229;48.708;9.706;2022-09-09T11:39:07;23.10;76.40
4433;DHT22;2229;48.708;9.706;2022-09-09T11:41:39;23.00;75.40
4433;DHT22;2229;48.708;9.706;2022-09-09T11:44:11;23.00;75.30
4433;DHT22;2229;48.708;9.706;2022-09-09T11:46:41;23.10;74.70
4433;DHT22;2229;48.708;9.706;2022-09-09T11:49:27;23.20;74.60
4433;DHT22;2229;48.708;9.706;2022-09-09T11:51:54;23.30;75.20
4433;DHT22;2229;48.708;9.706;2022-09-09T11:54:29;23.40;74.50
4433;DHT22;2229;48.708;9.706;2022-09-09T11:56:59;23.50;73.60
4433;DHT22;2229;48.708;9.706;2022-09-09T11:59:28;23.50;72.70
4433;DHT22;2229;48.708;9.706;2022-09-09T12:01:59;23.50;72.10
4433;DHT22;2229;48.708;9.706;2022-09-09T12:04:33;23.40;72.40
4433;DHT22;2229;48.708;9.706;2022-09-09T12:07:04;23.40;71.10
4433;DHT22;2229;48.708;9.706;2022-09-09T12:09:43;23.30;70.80
4433;DHT22;2229;48.708;9.706;2022-09-09T12:12:27;23.20;70.10
4433;DHT22;2229;48.708;9.706;2022-09-09T12:15:00;23.00;70.80
4433;DHT22;2229;48.708;9.706;2022-09-09T12:17:31;22.80;74.20
4433;DHT22;2229;48.708;9.706;2022-09-09T12:20:11;22.50;76.00
4433;DHT22;2229;48.708;9.706;2022-09-09T12:22:46;22.30;77.10
4433;DHT22;2229;48.708;9.706;2022-09-09T12:25:23;22.10;77.80
4433;DHT22;2229;48.708;9.706;2022-09-09T12:28:02;22.00;78.40
4433;DHT22;2229;48.708;9.706;2022-09-09T12:30:36;21.80;78.60
4433;DHT22;2229;48.708;9.706;2022-09-09T12:33:11;21.70;79.10
4433;DHT22;2229;48.708;9.706;2022-09-09T12:35:42;21.60;79.30
4433;DHT22;2229;48.708;9.706;2022-09-09T12:38:13;21.40;79.40
4433;DHT22;2229;48.708;9.706;2022-09-09T12:40:54;21.40;80.00
4433;DHT22;2229;48.708;9.706;2022-09-09T12:43:26;21.30;80.40
4433;DHT22;2229;48.708;9.706;2022-09-09T12:45:57;21.30;80.80
4433;DHT22;2229;48.708;9.706;2022-09-09T12:48:32;21.30;81.20
4433;DHT22;2229;48.708;9.706;2022-09-09T12:51:00;21.40;81.70
4433;DHT22;2229;48.708;9.706;2022-09-09T12:53:31;21.60;82.10
4433;DHT22;2229;48.708;9.706;2022-09-09T12:56:02;21.60;81.40
4433;DHT22;2229;48.708;9.706;2022-09-09T12:58:31;21.60;80.60
4433;DHT22;2229;48.708;9.706;2022-09-09T13:01:03;21.70;80.30
4433;DHT22;2229;48.708;9.706;2022-09-09T13:03:33;21.80;80.20
4433;DHT22;2229;48.708;9.706;2022-09-09T13:06:12;21.90;80.00
4433;DHT22;2229;48.708;9.706;2022-09-09T13:08:40;22.10;79.50
4433;DHT22;2229;48.708;9.706;2022-09-09T13:11:12;22.30;78.90
4433;DHT22;2229;48.708;9.706;2022-09-09T13:13:42;22.40;77.70
4433;DHT22;2229;48.708;9.706;2022-09-09T13:16:20;22.50;76.20
4433;DHT22;2229;48.708;9.706;2022-09-09T13:18:49;22.60;76.80
4433;DHT22;2229;48.708;9.706;2022-09-09T13:21:16;22.80;77.40
4433;DHT22;2229;48.708;9.706;2022-09-09T13:23:49;22.90;77.20
4433;DHT22;2229;48.708;9.706;2022-09-09T13:26:23;23.00;76.50
4433;DHT22;2229;48.708;9.706;2022-09-09T13:28:54;23.10;75.70
4433;DHT22;2229;48.708;9.706;2022-09-09T13:31:37;23.20;74.90
4433;DHT22;2229;48.708;9.706;2022-09-09T13:34:12;23.30;75.80
4433;DHT22;2229;48.708;9.706;2022-09-09T13:36:40;23.40;76.00
4433;DHT22;2229;48.708;9.706;2022-09-09T13:39:16;23.50;75.00
4433;DHT22;2229;48.708;9.706;2022-09-09T13:41:45;23.50;73.60
4433;DHT22;2229;48.708;9.706;2022-09-09T13:44:21;23.60;73.10
4433;DHT22;2229;48.708;9.706;2022-09-09T13:47:00;23.70;72.10
4433;DHT22;2229;48.708;9.706;2022-09-09T13:49:30;23.70;71.70
4433;DHT22;2229;48.708;9.706;2022-09-09T13:52:09;23.60;71.50
4433;DHT22;2229;48.708;9.706;2022-09-09T13:54:37;23.40;71.20
4433;DHT22;2229;48.708;9.706;2022-09-09T13:57:05;23.30;71.40
4433;DHT22;2229;48.708;9.706;2022-09-09T13:59:35;23.20;71.20
4433;DHT22;2229;48.708;9.706;2022-09-09T14:02:02;23.10;71.60
4433;DHT22;2229;48.708;9.706;2022-09-09T14:04:31;23.00;71.80
4433;DHT22;2229;48.708;9.706;2022-09-09T14:07:01;23.00;72.20
4433;DHT22;2229;48.708;9.706;2022-09-09T14:09:31;22.90;71.60
4433;DHT22;2229;48.708;9.706;2022-09-09T14:11:58;22.80;72.00
4433;DHT22;2229;48.708;9.706;2022-09-09T14:14:26;22.80;71.90
4433;DHT22;2229;48.708;9.706;2022-09-09T14:16:55;22.90;73.00
4433;DHT22;2229;48.708;9.706;2022-09-09T14:19:22;23.00;72.80
4433;DHT22;2229;48.708;9.706;2022-09-09T14:21:53;23.10;71.70
4433;DHT22;2229;48.708;9.706;2022-09-09T14:24:21;23.20;69.90
4433;DHT22;2229;48.708;9.706;2022-09-09T14:26:48;23.20;69.30
4433;DHT22;2229;48.708;9.706;2022-09-09T14:29:15;23.30;69.80
4433;DHT22;2229;48.708;9.706;2022-09-09T14:31:42;23.40;70.20
4433;DHT22;2229;48.708;9.706;2022-09-09T14:34:12;23.50;68.80
4433;DHT22;2229;48.708;9.706;2022-09-09T14:36:40;23.50;67.90
4433;DHT22;2229;48.708;9.706;2022-09-09T14:39:08;23.60;67.30
4433;DHT22;2229;48.708;9.706;2022-09-09T14:41:35;23.60;67.20
4433;DHT22;2229;48.708;9.706;2022-09-09T14:44:03;23.60;67.40
4433;DHT22;2229;48.708;9.706;2022-09-09T14:46:30;23.50;67.90
4433;DHT22;2229;48.708;9.706;2022-09-09T14:48:59;23.60;67.70
4433;DHT22;2229;48.708;9.706;2022-09-09T14:51:26;23.60;68.80
4433;DHT22;2229;48.708;9.706;2022-09-09T14:53:55;23.50;67.50
4433;DHT22;2229;48.708;9.706;2022-09-09T14:56:25;23.50;67.00
4433;DHT22;2229;48.708;9.706;2022-09-09T14:58:54;23.50;67.60
4433;DHT22;2229;48.708;9.706;2022-09-09T15:01:22;23.50;67.60
4433;DHT22;2229;48.708;9.706;2022-09-09T15:03:51;23.60;68.00
4433;DHT22;2229;48.708;9.706;2022-09-09T15:06:19;23.60;68.10
4433;DHT22;2229;48.708;9.706;2022-09-09T15:08:47;23.60;67.60
4433;DHT22;2229;48.708;9.706;2022-09-09T15:11:16;23.60;67.50
4433;DHT22;2229;48.708;9.706;2022-09-09T15:13:45;23.60;67.60
4433;DHT22;2229;48.708;9.706;2022-09-09T15:16:14;23.50;67.10
4433;DHT22;2229;48.708;9.706;2022-09-09T15:18:42;23.30;66.00
4433;DHT22;2229;48.708;9.706;2022-09-09T15:21:10;23.10;65.80
4433;DHT22;2229;48.708;9.706;2022-09-09T15:23:38;22.90;66.30
4433;DHT22;2229;48.708;9.706;2022-09-09T15:26:06;22.80;66.80
4433;DHT22;2229;48.708;9.706;2022-09-09T15:28:34;22.70;67.30
4433;DHT22;2229;48.708;9.706;2022-09-09T15:31:07;22.60;67.80
4433;DHT22;2229;48.708;9.706;2022-09-09T15:33:35;22.50;68.50
4433;DHT22;2229;48.708;9.706;2022-09-09T15:36:13;22.60;68.50
4433;DHT22;2229;48.708;9.706;2022-09-09T15:38:41;22.70;67.10
4433;DHT22;2229;48.708;9.706;2022-09-09T15:41:09;22.80;67.10
4433;DHT22;2229;48.708;9.706;2022-09-09T15:43:36;22.90;67.30
4433;DHT22;2229;48.708;9.706;2022-09-09T15:46:22;22.90;67.10
4433;DHT22;2229;48.708;9.706;2022-09-09T15:48:52;22.80;66.80
4433;DHT22;2229;48.708;9.706;2022-09-09T15:51:20;22.60;66.70
4433;DHT22;2229;48.708;9.706;2022-09-09T15:53:47;22.50;66.50
4433;DHT22;2229;48.708;9.706;2022-09-09T15:56:14;22.30;66.50
4433;DHT22;2229;48.708;9.706;2022-09-09T15:58:41;22.20;66.80
4433;DHT22;2229;48.708;9.706;2022-09-09T16:01:11;22.10;67.30
4433;DHT22;2229;48.708;9.706;2022-09-09T16:03:40;21.90;67.70
4433;DHT22;2229;48.708;9.706;2022-09-09T16:06:11;21.80;68.10
4433;DHT22;2229;48.708;9.706;2022-09-09T16:08:42;21.70;67.90
4433;DHT22;2229;48.708;9.706;2022-09-09T16:11:11;21.60;68.20
4433;DHT22;2229;48.708;9.706;2022-09-09T16:13:41;21.60;68.80
4433;DHT22;2229;48.708;9.706;2022-09-09T16:16:11;21.60;70.90
4433;DHT22;2229;48.708;9.706;2022-09-09T16:18:40;21.50;73.60
4433;DHT22;2229;48.708;9.706;2022-09-09T16:21:08;21.40;74.40
4433;DHT22;2229;48.708;9.706;2022-09-09T16:23:42;21.30;74.70
4433;DHT22;2229;48.708;9.706;2022-09-09T16:26:11;21.20;74.80
4433;DHT22;2229;48.708;9.706;2022-09-09T16:28:38;21.10;74.70
4433;DHT22;2229;48.708;9.706;2022-09-09T16:31:06;21.00;74.70
4433;DHT22;2229;48.708;9.706;2022-09-09T16:33:34;20.90;73.90
4433;DHT22;2229;48.708;9.706;2022-09-09T16:36:05;20.70;74.00
4433;DHT22;2229;48.708;9.706;2022-09-09T16:38:33;20.70;74.50
4433;DHT22;2229;48.708;9.706;2022-09-09T16:41:02;20.60;74.50